sensor_id;sensor_type;location;lat;lon;timestamp;P1;durP1;ratioP1;P2;durP2;ratioP2
78873;SDS011;68250;43.514;1.494;2023-08-24T00:01:08;8.33;;;4.73;;
78873;SDS011;68250;43.514;1.494;2023-08-24T00:03:36;9.35;;;4.57;;
78873;SDS011;68250;43.514;1.494;2023-08-24T00:06:02;7.13;;;4.20;;
78873;SDS011;68250;43.514;1.494;2023-08-24T00:08:28;8.90;;;4.50;;
78873;SDS011;68250;43.514;1.494;2023-08-24T00:10:53;7.90;;;4.82;;
78873;SDS011;68250;43.514;1.494;2023-08-24T00:13:19;8.30;;;4.50;;
78873;SDS011;68250;43.514;1.494;2023-08-24T00:15:45;9.88;;;5.05;;
78873;SDS011;68250;43.514;1.494;2023-08-24T00:18:11;10.57;;;4.50;;
78873;SDS011;68250;43.514;1.494;2023-08-24T00:20:36;8.02;;;4.60;;
78873;SDS011;68250;43.514;1.494;2023-08-24T00:23:02;8.23;;;5.03;;
78873;SDS011;68250;43.514;1.494;2023-08-24T00:25:28;7.72;;;4.80;;
78873;SDS011;68250;43.514;1.494;2023-08-24T00:27:54;9.00;;;4.70;;
78873;SDS011;68250;43.514;1.494;2023-08-24T00:30:20;7.38;;;4.95;;
78873;SDS011;68250;43.514;1.494;2023-08-24T00:32:46;7.57;;;4.90;;
78873;SDS011;68250;43.514;1.494;2023-08-24T00:35:12;8.40;;;4.70;;
78873;SDS011;68250;43.514;1.494;2023-08-24T00:37:37;7.37;;;4.77;;
78873;SDS011;68250;43.514;1.494;2023-08-24T00:40:04;8.95;;;4.88;;
78873;SDS011;68250;43.514;1.494;2023-08-24T00:42:36;10.48;;;4.80;;
78873;SDS011;68250;43.514;1.494;2023-08-24T00:45:06;8.20;;;4.75;;
78873;SDS011;68250;43.514;1.494;2023-08-24T00:47:34;12.40;;;4.87;;
78873;SDS011;68250;43.514;1.494;2023-08-24T00:50:00;10.07;;;5.15;;
78873;SDS011;68250;43.514;1.494;2023-08-24T00:52:27;10.70;;;5.47;;
78873;SDS011;68250;43.514;1.494;2023-08-24T00:54:54;9.45;;;5.53;;
78873;SDS011;68250;43.514;1.494;2023-08-24T00:57:20;8.47;;;5.30;;
78873;SDS011;68250;43.514;1.494;2023-08-24T00:59:46;8.25;;;5.20;;
78873;SDS011;68250;43.514;1.494;2023-08-24T01:02:12;8.43;;;5.00;;
78873;SDS011;68250;43.514;1.494;2023-08-24T01:04:37;8.30;;;5.07;;
78873;SDS011;68250;43.514;1.494;2023-08-24T01:07:03;10.97;;;4.93;;
78873;SDS011;68250;43.514;1.494;2023-08-24T01:09:28;8.57;;;5.07;;
78873;SDS011;68250;43.514;1.494;2023-08-24T01:14:55;13.50;;;6.03;;
78873;SDS011;68250;43.514;1.494;2023-08-24T01:17:24;10.50;;;5.60;;
78873;SDS011;68250;43.514;1.494;2023-08-24T01:19:54;9.77;;;5.65;;
78873;SDS011;68250;43.514;1.494;2023-08-24T01:27:31;11.50;;;4.97;;
78873;SDS011;68250;43.514;1.494;2023-08-24T01:29:58;8.55;;;5.07;;
78873;SDS011;68250;43.514;1.494;2023-08-24T01:32:24;11.70;;;5.30;;
78873;SDS011;68250;43.514;1.494;2023-08-24T01:34:50;8.98;;;4.88;;
78873;SDS011;68250;43.514;1.494;2023-08-24T01:37:16;8.77;;;5.47;;
78873;SDS011;68250;43.514;1.494;2023-08-24T01:42:17;9.27;;;5.55;;
78873;SDS011;68250;43.514;1.494;2023-08-24T01:44:47;11.93;;;5.32;;
78873;SDS011;68250;43.514;1.494;2023-08-24T01:47:14;11.40;;;5.25;;
78873;SDS011;68250;43.514;1.494;2023-08-24T01:49:40;11.00;;;5.17;;
78873;SDS011;68250;43.514;1.494;2023-08-24T01:52:07;10.75;;;4.97;;
78873;SDS011;68250;43.514;1.494;2023-08-24T01:54:33;9.82;;;4.97;;
78873;SDS011;68250;43.514;1.494;2023-08-24T01:56:59;10.85;;;5.07;;
78873;SDS011;68250;43.514;1.494;2023-08-24T01:59:24;8.13;;;5.27;;
78873;SDS011;68250;43.514;1.494;2023-08-24T02:01:50;11.43;;;5.20;;
78873;SDS011;68250;43.514;1.494;2023-08-24T02:04:15;8.70;;;4.75;;
78873;SDS011;68250;43.514;1.494;2023-08-24T02:06:41;8.73;;;5.03;;
78873;SDS011;68250;43.514;1.494;2023-08-24T02:09:06;8.07;;;5.07;;
78873;SDS011;68250;43.514;1.494;2023-08-24T02:11:32;9.40;;;4.60;;
78873;SDS011;68250;43.514;1.494;2023-08-24T02:13:57;8.48;;;4.88;;
78873;SDS011;68250;43.514;1.494;2023-08-24T02:16:23;8.33;;;4.97;;
78873;SDS011;68250;43.514;1.494;2023-08-24T02:18:48;9.67;;;5.20;;
78873;SDS011;68250;43.514;1.494;2023-08-24T02:21:14;9.45;;;5.20;;
78873;SDS011;68250;43.514;1.494;2023-08-24T02:23:41;10.43;;;5.63;;
78873;SDS011;68250;43.514;1.494;2023-08-24T02:26:06;9.90;;;5.05;;
78873;SDS011;68250;43.514;1.494;2023-08-24T02:28:32;8.43;;;4.90;;
78873;SDS011;68250;43.514;1.494;2023-08-24T02:31:02;8.93;;;4.75;;
78873;SDS011;68250;43.514;1.494;2023-08-24T02:33:28;8.63;;;5.10;;
78873;SDS011;68250;43.514;1.494;2023-08-24T02:35:53;8.53;;;5.30;;
78873;SDS011;68250;43.514;1.494;2023-08-24T02:38:19;8.77;;;5.13;;
78873;SDS011;68250;43.514;1.494;2023-08-24T02:40:44;11.50;;;4.90;;
78873;SDS011;68250;43.514;1.494;2023-08-24T02:43:10;11.02;;;5.30;;
78873;SDS011;68250;43.514;1.494;2023-08-24T02:45:36;8.13;;;4.77;;
78873;SDS011;68250;43.514;1.494;2023-08-24T02:48:01;9.47;;;5.47;;
78873;SDS011;68250;43.514;1.494;2023-08-24T02:50:27;9.55;;;4.93;;
78873;SDS011;68250;43.514;1.494;2023-08-24T02:52:52;10.57;;;5.20;;
78873;SDS011;68250;43.514;1.494;2023-08-24T02:55:18;10.73;;;5.10;;
78873;SDS011;68250;43.514;1.494;2023-08-24T02:57:44;10.67;;;5.00;;
78873;SDS011;68250;43.514;1.494;2023-08-24T03:00:10;9.97;;;5.10;;
78873;SDS011;68250;43.514;1.494;2023-08-24T03:02:38;9.68;;;4.90;;
78873;SDS011;68250;43.514;1.494;2023-08-24T03:05:04;9.50;;;5.23;;
78873;SDS011;68250;43.514;1.494;2023-08-24T03:07:30;7.40;;;4.75;;
78873;SDS011;68250;43.514;1.494;2023-08-24T03:09:55;10.27;;;5.30;;
78873;SDS011;68250;43.514;1.494;2023-08-24T03:12:21;11.17;;;5.80;;
78873;SDS011;68250;43.514;1.494;2023-08-24T03:14:46;9.38;;;5.40;;
78873;SDS011;68250;43.514;1.494;2023-08-24T03:17:12;9.30;;;5.10;;
78873;SDS011;68250;43.514;1.494;2023-08-24T03:19:38;8.63;;;5.32;;
78873;SDS011;68250;43.514;1.494;2023-08-24T03:22:03;10.77;;;5.37;;
78873;SDS011;68250;43.514;1.494;2023-08-24T03:24:28;7.77;;;4.73;;
78873;SDS011;68250;43.514;1.494;2023-08-24T03:26:54;11.27;;;5.43;;
78873;SDS011;68250;43.514;1.494;2023-08-24T03:29:20;12.13;;;5.38;;
78873;SDS011;68250;43.514;1.494;2023-08-24T03:31:46;11.57;;;5.50;;
78873;SDS011;68250;43.514;1.494;2023-08-24T03:34:11;10.13;;;5.70;;
78873;SDS011;68250;43.514;1.494;2023-08-24T03:36:37;9.00;;;5.17;;
78873;SDS011;68250;43.514;1.494;2023-08-24T03:39:03;9.90;;;5.18;;
78873;SDS011;68250;43.514;1.494;2023-08-24T03:41:28;8.60;;;5.30;;
78873;SDS011;68250;43.514;1.494;2023-08-24T03:43:54;15.10;;;5.20;;
78873;SDS011;68250;43.514;1.494;2023-08-24T03:46:19;8.30;;;5.80;;
78873;SDS011;68250;43.514;1.494;2023-08-24T03:48:45;9.33;;;5.17;;
78873;SDS011;68250;43.514;1.494;2023-08-24T03:51:10;8.95;;;4.80;;
78873;SDS011;68250;43.514;1.494;2023-08-24T03:53:36;12.03;;;5.10;;
78873;SDS011;68250;43.514;1.494;2023-08-24T03:56:01;7.47;;;5.10;;
78873;SDS011;68250;43.514;1.494;2023-08-24T03:58:27;9.48;;;5.13;;
78873;SDS011;68250;43.514;1.494;2023-08-24T04:00:53;10.73;;;5.27;;
78873;SDS011;68250;43.514;1.494;2023-08-24T04:03:19;8.75;;;5.20;;
78873;SDS011;68250;43.514;1.494;2023-08-24T04:05:44;12.07;;;5.13;;
78873;SDS011;68250;43.514;1.494;2023-08-24T04:08:10;9.40;;;4.97;;
78873;SDS011;68250;43.514;1.494;2023-08-24T04:10:35;8.70;;;5.40;;
78873;SDS011;68250;43.514;1.494;2023-08-24T04:13:02;10.15;;;5.35;;
78873;SDS011;68250;43.514;1.494;2023-08-24T04:15:28;10.73;;;5.10;;
78873;SDS011;68250;43.514;1.494;2023-08-24T04:17:53;8.17;;;5.13;;
78873;SDS011;68250;43.514;1.494;2023-08-24T04:20:19;10.82;;;4.80;;
78873;SDS011;68250;43.514;1.494;2023-08-24T04:22:44;8.57;;;4.80;;
78873;SDS011;68250;43.514;1.494;2023-08-24T04:25:10;11.98;;;5.40;;
78873;SDS011;68250;43.514;1.494;2023-08-24T04:27:36;12.63;;;5.47;;
78873;SDS011;68250;43.514;1.494;2023-08-24T04:30:02;9.38;;;5.20;;
78873;SDS011;68250;43.514;1.494;2023-08-24T04:32:28;11.70;;;5.22;;
78873;SDS011;68250;43.514;1.494;2023-08-24T04:34:54;13.20;;;5.13;;
78873;SDS011;68250;43.514;1.494;2023-08-24T04:37:19;10.48;;;5.10;;
78873;SDS011;68250;43.514;1.494;2023-08-24T04:39:45;9.33;;;5.10;;
78873;SDS011;68250;43.514;1.494;2023-08-24T04:42:11;11.50;;;5.00;;
78873;SDS011;68250;43.514;1.494;2023-08-24T04:44:36;10.13;;;5.30;;
78873;SDS011;68250;43.514;1.494;2023-08-24T04:47:02;10.50;;;5.33;;
78873;SDS011;68250;43.514;1.494;2023-08-24T04:49:29;10.60;;;5.30;;
78873;SDS011;68250;43.514;1.494;2023-08-24T04:51:55;10.98;;;5.22;;
78873;SDS011;68250;43.514;1.494;2023-08-24T04:54:20;9.47;;;5.20;;
78873;SDS011;68250;43.514;1.494;2023-08-24T04:56:46;13.47;;;5.57;;
78873;SDS011;68250;43.514;1.494;2023-08-24T04:59:12;9.48;;;5.72;;
78873;SDS011;68250;43.514;1.494;2023-08-24T05:01:37;10.33;;;5.20;;
78873;SDS011;68250;43.514;1.494;2023-08-24T05:04:03;18.88;;;5.72;;
78873;SDS011;68250;43.514;1.494;2023-08-24T05:06:29;9.03;;;5.57;;
78873;SDS011;68250;43.514;1.494;2023-08-24T05:08:54;10.33;;;5.13;;
78873;SDS011;68250;43.514;1.494;2023-08-24T05:11:21;10.70;;;4.63;;
78873;SDS011;68250;43.514;1.494;2023-08-24T05:13:49;11.70;;;5.50;;
78873;SDS011;68250;43.514;1.494;2023-08-24T05:16:15;15.00;;;5.40;;
78873;SDS011;68250;43.514;1.494;2023-08-24T05:18:40;11.73;;;5.28;;
78873;SDS011;68250;43.514;1.494;2023-08-24T05:21:06;13.90;;;5.77;;
78873;SDS011;68250;43.514;1.494;2023-08-24T05:23:32;10.77;;;6.03;;
78873;SDS011;68250;43.514;1.494;2023-08-24T05:25:58;12.05;;;5.60;;
78873;SDS011;68250;43.514;1.494;2023-08-24T05:28:24;10.43;;;5.68;;
78873;SDS011;68250;43.514;1.494;2023-08-24T05:30:51;12.68;;;5.45;;
78873;SDS011;68250;43.514;1.494;2023-08-24T05:33:17;10.30;;;5.53;;
78873;SDS011;68250;43.514;1.494;2023-08-24T05:35:43;12.90;;;6.00;;
78873;SDS011;68250;43.514;1.494;2023-08-24T05:38:08;10.73;;;5.13;;
78873;SDS011;68250;43.514;1.494;2023-08-24T05:40:34;11.13;;;5.57;;
78873;SDS011;68250;43.514;1.494;2023-08-24T05:43:00;16.50;;;5.40;;
78873;SDS011;68250;43.514;1.494;2023-08-24T05:45:25;11.80;;;5.43;;
78873;SDS011;68250;43.514;1.494;2023-08-24T05:47:51;11.17;;;5.57;;
78873;SDS011;68250;43.514;1.494;2023-08-24T05:50:16;10.23;;;5.40;;
78873;SDS011;68250;43.514;1.494;2023-08-24T05:52:42;12.37;;;5.73;;
78873;SDS011;68250;43.514;1.494;2023-08-24T05:55:07;11.20;;;5.10;;
78873;SDS011;68250;43.514;1.494;2023-08-24T05:57:33;8.82;;;5.38;;
78873;SDS011;68250;43.514;1.494;2023-08-24T05:59:59;11.70;;;5.70;;
78873;SDS011;68250;43.514;1.494;2023-08-24T06:02:24;9.17;;;5.17;;
78873;SDS011;68250;43.514;1.494;2023-08-24T06:04:50;15.43;;;5.80;;
78873;SDS011;68250;43.514;1.494;2023-08-24T06:07:16;9.63;;;5.43;;
78873;SDS011;68250;43.514;1.494;2023-08-24T06:09:42;14.05;;;5.45;;
78873;SDS011;68250;43.514;1.494;2023-08-24T06:12:07;11.10;;;5.63;;
78873;SDS011;68250;43.514;1.494;2023-08-24T06:14:33;11.37;;;5.70;;
78873;SDS011;68250;43.514;1.494;2023-08-24T06:16:59;9.30;;;5.40;;
78873;SDS011;68250;43.514;1.494;2023-08-24T06:19:24;13.00;;;5.07;;
78873;SDS011;68250;43.514;1.494;2023-08-24T06:21:50;12.23;;;5.30;;
78873;SDS011;68250;43.514;1.494;2023-08-24T06:24:15;12.68;;;5.50;;
78873;SDS011;68250;43.514;1.494;2023-08-24T06:26:41;11.23;;;5.33;;
78873;SDS011;68250;43.514;1.494;2023-08-24T06:29:06;9.00;;;5.73;;
78873;SDS011;68250;43.514;1.494;2023-08-24T06:31:32;10.85;;;5.57;;
78873;SDS011;68250;43.514;1.494;2023-08-24T06:33:58;11.33;;;5.50;;
78873;SDS011;68250;43.514;1.494;2023-08-24T06:36:23;12.00;;;5.53;;
78873;SDS011;68250;43.514;1.494;2023-08-24T06:38:49;11.00;;;5.47;;
78873;SDS011;68250;43.514;1.494;2023-08-24T06:41:15;9.68;;;5.22;;
78873;SDS011;68250;43.514;1.494;2023-08-24T06:43:40;14.10;;;5.57;;
78873;SDS011;68250;43.514;1.494;2023-08-24T06:46:06;8.27;;;5.40;;
78873;SDS011;68250;43.514;1.494;2023-08-24T06:48:35;12.55;;;5.55;;
78873;SDS011;68250;43.514;1.494;2023-08-24T06:51:02;8.55;;;5.63;;
78873;SDS011;68250;43.514;1.494;2023-08-24T06:53:27;9.20;;;5.40;;
78873;SDS011;68250;43.514;1.494;2023-08-24T06:55:53;8.98;;;5.70;;
78873;SDS011;68250;43.514;1.494;2023-08-24T06:58:22;10.33;;;5.43;;
78873;SDS011;68250;43.514;1.494;2023-08-24T07:00:48;11.25;;;5.43;;
78873;SDS011;68250;43.514;1.494;2023-08-24T07:03:16;11.48;;;5.22;;
78873;SDS011;68250;43.514;1.494;2023-08-24T07:05:42;10.63;;;5.20;;
78873;SDS011;68250;43.514;1.494;2023-08-24T07:08:08;10.85;;;5.10;;
78873;SDS011;68250;43.514;1.494;2023-08-24T07:10:34;11.55;;;5.20;;
78873;SDS011;68250;43.514;1.494;2023-08-24T07:13:00;11.73;;;5.50;;
78873;SDS011;68250;43.514;1.494;2023-08-24T07:15:25;9.00;;;5.07;;
78873;SDS011;68250;43.514;1.494;2023-08-24T07:17:51;12.52;;;5.07;;
78873;SDS011;68250;43.514;1.494;2023-08-24T07:20:16;8.27;;;5.10;;
78873;SDS011;68250;43.514;1.494;2023-08-24T07:22:42;14.05;;;5.25;;
78873;SDS011;68250;43.514;1.494;2023-08-24T07:25:08;9.87;;;4.60;;
78873;SDS011;68250;43.514;1.494;2023-08-24T07:27:35;13.45;;;5.30;;
78873;SDS011;68250;43.514;1.494;2023-08-24T07:30:01;9.30;;;5.10;;
78873;SDS011;68250;43.514;1.494;2023-08-24T07:32:31;9.27;;;5.03;;
78873;SDS011;68250;43.514;1.494;2023-08-24T07:34:56;9.75;;;5.10;;
78873;SDS011;68250;43.514;1.494;2023-08-24T07:37:24;12.05;;;4.90;;
78873;SDS011;68250;43.514;1.494;2023-08-24T07:39:50;9.53;;;5.10;;
78873;SDS011;68250;43.514;1.494;2023-08-24T07:42:16;11.65;;;4.97;;
78873;SDS011;68250;43.514;1.494;2023-08-24T07:44:44;9.07;;;4.47;;
78873;SDS011;68250;43.514;1.494;2023-08-24T07:47:10;8.65;;;4.85;;
78873;SDS011;68250;43.514;1.494;2023-08-24T07:49:36;12.80;;;5.55;;
78873;SDS011;68250;43.514;1.494;2023-08-24T07:52:01;10.50;;;4.70;;
78873;SDS011;68250;43.514;1.494;2023-08-24T07:54:27;10.37;;;5.00;;
78873;SDS011;68250;43.514;1.494;2023-08-24T07:56:53;14.55;;;5.68;;
78873;SDS011;68250;43.514;1.494;2023-08-24T07:59:18;10.50;;;4.87;;
78873;SDS011;68250;43.514;1.494;2023-08-24T08:01:44;11.30;;;4.80;;
78873;SDS011;68250;43.514;1.494;2023-08-24T08:04:09;10.57;;;4.90;;
78873;SDS011;68250;43.514;1.494;2023-08-24T08:06:35;10.57;;;4.47;;
78873;SDS011;68250;43.514;1.494;2023-08-24T08:09:00;8.93;;;4.97;;
78873;SDS011;68250;43.514;1.494;2023-08-24T08:11:26;9.00;;;4.60;;
78873;SDS011;68250;43.514;1.494;2023-08-24T08:13:51;9.30;;;4.80;;
78873;SDS011;68250;43.514;1.494;2023-08-24T08:16:17;13.57;;;5.13;;
78873;SDS011;68250;43.514;1.494;2023-08-24T08:18:42;6.97;;;4.60;;
78873;SDS011;68250;43.514;1.494;2023-08-24T08:21:08;7.17;;;4.77;;
78873;SDS011;68250;43.514;1.494;2023-08-24T08:23:35;8.73;;;4.53;;
78873;SDS011;68250;43.514;1.494;2023-08-24T08:26:01;11.77;;;4.37;;
78873;SDS011;68250;43.514;1.494;2023-08-24T08:28:26;9.23;;;4.37;;
78873;SDS011;68250;43.514;1.494;2023-08-24T08:30:52;8.73;;;4.75;;
78873;SDS011;68250;43.514;1.494;2023-08-24T08:33:17;12.70;;;5.10;;
78873;SDS011;68250;43.514;1.494;2023-08-24T08:35:44;10.65;;;5.10;;
78873;SDS011;68250;43.514;1.494;2023-08-24T08:38:10;12.10;;;5.07;;
78873;SDS011;68250;43.514;1.494;2023-08-24T08:40:36;12.80;;;4.70;;
78873;SDS011;68250;43.514;1.494;2023-08-24T08:43:02;8.70;;;4.97;;
78873;SDS011;68250;43.514;1.494;2023-08-24T08:45:28;13.15;;;4.80;;
78873;SDS011;68250;43.514;1.494;2023-08-24T08:48:00;8.87;;;4.70;;
78873;SDS011;68250;43.514;1.494;2023-08-24T08:50:26;9.32;;;4.93;;
78873;SDS011;68250;43.514;1.494;2023-08-24T08:52:52;8.20;;;4.82;;
78873;SDS011;68250;43.514;1.494;2023-08-24T08:55:18;9.90;;;4.73;;
78873;SDS011;68250;43.514;1.494;2023-08-24T08:57:47;8.15;;;4.88;;
78873;SDS011;68250;43.514;1.494;2023-08-24T09:00:14;9.75;;;4.93;;
78873;SDS011;68250;43.514;1.494;2023-08-24T09:02:45;9.27;;;5.17;;
78873;SDS011;68250;43.514;1.494;2023-08-24T09:05:11;9.23;;;4.88;;
78873;SDS011;68250;43.514;1.494;2023-08-24T09:07:40;11.98;;;4.85;;
78873;SDS011;68250;43.514;1.494;2023-08-24T09:10:06;11.75;;;5.25;;
78873;SDS011;68250;43.514;1.494;2023-08-24T09:12:33;8.68;;;4.90;;
78873;SDS011;68250;43.514;1.494;2023-08-24T09:14:59;11.37;;;4.97;;
78873;SDS011;68250;43.514;1.494;2023-08-24T09:17:24;10.32;;;5.30;;
78873;SDS011;68250;43.514;1.494;2023-08-24T09:19:50;9.47;;;5.17;;
78873;SDS011;68250;43.514;1.494;2023-08-24T09:22:18;9.75;;;4.97;;
78873;SDS011;68250;43.514;1.494;2023-08-24T09:24:44;12.80;;;5.27;;
78873;SDS011;68250;43.514;1.494;2023-08-24T09:27:17;8.80;;;4.57;;
78873;SDS011;68250;43.514;1.494;2023-08-24T09:29:46;11.40;;;5.10;;
78873;SDS011;68250;43.514;1.494;2023-08-24T09:34:50;10.15;;;5.38;;
78873;SDS011;68250;43.514;1.494;2023-08-24T09:37:15;9.40;;;5.10;;
78873;SDS011;68250;43.514;1.494;2023-08-24T09:39:41;10.27;;;4.95;;
78873;SDS011;68250;43.514;1.494;2023-08-24T09:42:08;7.80;;;5.22;;
78873;SDS011;68250;43.514;1.494;2023-08-24T09:44:33;10.30;;;4.70;;
78873;SDS011;68250;43.514;1.494;2023-08-24T09:46:59;10.02;;;5.18;;
78873;SDS011;68250;43.514;1.494;2023-08-24T09:49:24;10.67;;;5.73;;
78873;SDS011;68250;43.514;1.494;2023-08-24T09:51:51;11.75;;;5.13;;
78873;SDS011;68250;43.514;1.494;2023-08-24T09:54:21;9.47;;;5.30;;
78873;SDS011;68250;43.514;1.494;2023-08-24T09:56:47;9.07;;;4.78;;
78873;SDS011;68250;43.514;1.494;2023-08-24T09:59:14;8.63;;;5.00;;
78873;SDS011;68250;43.514;1.494;2023-08-24T10:01:46;7.75;;;4.70;;
78873;SDS011;68250;43.514;1.494;2023-08-24T10:04:22;8.33;;;4.77;;
78873;SDS011;68250;43.514;1.494;2023-08-24T10:06:52;10.27;;;5.10;;
78873;SDS011;68250;43.514;1.494;2023-08-24T10:09:30;9.02;;;5.10;;
78873;SDS011;68250;43.514;1.494;2023-08-24T10:11:58;8.55;;;5.03;;
78873;SDS011;68250;43.514;1.494;2023-08-24T10:14:30;11.73;;;5.43;;
78873;SDS011;68250;43.514;1.494;2023-08-24T10:16:57;8.90;;;4.90;;
78873;SDS011;68250;43.514;1.494;2023-08-24T10:19:23;9.57;;;4.72;;
78873;SDS011;68250;43.514;1.494;2023-08-24T10:21:49;10.82;;;5.20;;
78873;SDS011;68250;43.514;1.494;2023-08-24T10:24:16;12.43;;;5.55;;
78873;SDS011;68250;43.514;1.494;2023-08-24T10:26:41;9.70;;;5.03;;
78873;SDS011;68250;43.514;1.494;2023-08-24T10:29:07;9.55;;;5.38;;
78873;SDS011;68250;43.514;1.494;2023-08-24T10:31:33;9.23;;;5.47;;
78873;SDS011;68250;43.514;1.494;2023-08-24T10:33:59;8.53;;;4.97;;
78873;SDS011;68250;43.514;1.494;2023-08-24T10:36:26;8.05;;;5.50;;
78873;SDS011;68250;43.514;1.494;2023-08-24T10:38:55;9.85;;;5.38;;
78873;SDS011;68250;43.514;1.494;2023-08-24T10:41:25;10.35;;;5.40;;
78873;SDS011;68250;43.514;1.494;2023-08-24T10:43:51;9.98;;;5.30;;
78873;SDS011;68250;43.514;1.494;2023-08-24T10:46:17;11.63;;;5.87;;
78873;SDS011;68250;43.514;1.494;2023-08-24T10:53:58;11.35;;;6.40;;
78873;SDS011;68250;43.514;1.494;2023-08-24T10:56:34;10.02;;;5.72;;
78873;SDS011;68250;43.514;1.494;2023-08-24T10:59:10;10.88;;;5.97;;
78873;SDS011;68250;43.514;1.494;2023-08-24T11:01:40;11.13;;;5.83;;
78873;SDS011;68250;43.514;1.494;2023-08-24T11:04:07;9.95;;;5.90;;
78873;SDS011;68250;43.514;1.494;2023-08-24T11:06:33;11.35;;;6.32;;
78873;SDS011;68250;43.514;1.494;2023-08-24T11:09:05;10.70;;;6.00;;
78873;SDS011;68250;43.514;1.494;2023-08-24T11:11:32;9.35;;;5.80;;
78873;SDS011;68250;43.514;1.494;2023-08-24T11:16:45;12.03;;;6.13;;
78873;SDS011;68250;43.514;1.494;2023-08-24T11:19:11;11.95;;;6.43;;
78873;SDS011;68250;43.514;1.494;2023-08-24T11:21:40;9.23;;;5.78;;
78873;SDS011;68250;43.514;1.494;2023-08-24T11:24:08;10.43;;;6.10;;
78873;SDS011;68250;43.514;1.494;2023-08-24T11:26:39;10.73;;;6.22;;
78873;SDS011;68250;43.514;1.494;2023-08-24T11:29:05;11.93;;;6.23;;
78873;SDS011;68250;43.514;1.494;2023-08-24T11:31:32;13.23;;;5.80;;
78873;SDS011;68250;43.514;1.494;2023-08-24T11:33:59;8.98;;;5.95;;
78873;SDS011;68250;43.514;1.494;2023-08-24T11:36:24;11.00;;;5.70;;
78873;SDS011;68250;43.514;1.494;2023-08-24T11:38:55;11.02;;;5.60;;
78873;SDS011;68250;43.514;1.494;2023-08-24T11:41:22;9.57;;;5.23;;
78873;SDS011;68250;43.514;1.494;2023-08-24T11:43:48;8.77;;;5.45;;
78873;SDS011;68250;43.514;1.494;2023-08-24T11:46:16;11.68;;;5.50;;
78873;SDS011;68250;43.514;1.494;2023-08-24T11:48:43;12.63;;;5.50;;
78873;SDS011;68250;43.514;1.494;2023-08-24T11:51:09;8.43;;;5.50;;
78873;SDS011;68250;43.514;1.494;2023-08-24T11:53:38;10.88;;;5.95;;
78873;SDS011;68250;43.514;1.494;2023-08-24T11:56:13;11.13;;;5.78;;
78873;SDS011;68250;43.514;1.494;2023-08-24T11:58:42;10.15;;;5.32;;
78873;SDS011;68250;43.514;1.494;2023-08-24T12:01:09;9.73;;;5.53;;
78873;SDS011;68250;43.514;1.494;2023-08-24T12:03:36;11.15;;;5.93;;
78873;SDS011;68250;43.514;1.494;2023-08-24T12:06:06;8.70;;;5.65;;
78873;SDS011;68250;43.514;1.494;2023-08-24T12:08:42;12.70;;;6.10;;
78873;SDS011;68250;43.514;1.494;2023-08-24T12:11:18;8.18;;;5.43;;
78873;SDS011;68250;43.514;1.494;2023-08-24T12:13:48;12.10;;;5.97;;
78873;SDS011;68250;43.514;1.494;2023-08-24T12:16:15;9.43;;;5.65;;
78873;SDS011;68250;43.514;1.494;2023-08-24T12:18:57;8.63;;;5.97;;
78873;SDS011;68250;43.514;1.494;2023-08-24T12:21:28;9.20;;;5.47;;
78873;SDS011;68250;43.514;1.494;2023-08-24T12:24:02;10.88;;;5.65;;
78873;SDS011;68250;43.514;1.494;2023-08-24T12:26:30;9.07;;;5.40;;
78873;SDS011;68250;43.514;1.494;2023-08-24T12:29:01;11.32;;;5.60;;
78873;SDS011;68250;43.514;1.494;2023-08-24T12:31:30;9.18;;;5.80;;
78873;SDS011;68250;43.514;1.494;2023-08-24T12:34:03;11.77;;;6.60;;
78873;SDS011;68250;43.514;1.494;2023-08-24T12:36:31;10.13;;;6.10;;
78873;SDS011;68250;43.514;1.494;2023-08-24T12:38:57;10.53;;;6.47;;
78873;SDS011;68250;43.514;1.494;2023-08-24T12:41:23;8.88;;;5.80;;
78873;SDS011;68250;43.514;1.494;2023-08-24T12:43:49;9.47;;;6.13;;
78873;SDS011;68250;43.514;1.494;2023-08-24T12:46:16;11.90;;;5.60;;
78873;SDS011;68250;43.514;1.494;2023-08-24T12:48:41;10.43;;;5.80;;
78873;SDS011;68250;43.514;1.494;2023-08-24T12:51:07;8.47;;;5.57;;
78873;SDS011;68250;43.514;1.494;2023-08-24T12:53:33;10.32;;;5.70;;
78873;SDS011;68250;43.514;1.494;2023-08-24T12:55:58;10.57;;;5.87;;
78873;SDS011;68250;43.514;1.494;2023-08-24T12:58:24;8.30;;;5.47;;
78873;SDS011;68250;43.514;1.494;2023-08-24T13:00:50;10.18;;;6.07;;
78873;SDS011;68250;43.514;1.494;2023-08-24T13:03:16;9.15;;;5.80;;
78873;SDS011;68250;43.514;1.494;2023-08-24T13:05:41;12.40;;;6.23;;
78873;SDS011;68250;43.514;1.494;2023-08-24T13:08:07;9.40;;;5.50;;
78873;SDS011;68250;43.514;1.494;2023-08-24T13:10:32;8.05;;;5.90;;
78873;SDS011;68250;43.514;1.494;2023-08-24T13:12:58;8.43;;;5.30;;
78873;SDS011;68250;43.514;1.494;2023-08-24T13:15:24;8.23;;;5.20;;
78873;SDS011;68250;43.514;1.494;2023-08-24T13:17:49;11.67;;;5.77;;
78873;SDS011;68250;43.514;1.494;2023-08-24T13:20:15;9.83;;;5.20;;
78873;SDS011;68250;43.514;1.494;2023-08-24T13:22:41;7.50;;;5.03;;
78873;SDS011;68250;43.514;1.494;2023-08-24T13:25:07;10.55;;;5.88;;
78873;SDS011;68250;43.514;1.494;2023-08-24T13:27:32;9.13;;;4.70;;
78873;SDS011;68250;43.514;1.494;2023-08-24T13:30:01;13.55;;;5.55;;
78873;SDS011;68250;43.514;1.494;2023-08-24T13:32:27;9.80;;;5.50;;
78873;SDS011;68250;43.514;1.494;2023-08-24T13:34:53;9.17;;;5.00;;
78873;SDS011;68250;43.514;1.494;2023-08-24T13:37:18;7.60;;;4.65;;
78873;SDS011;68250;43.514;1.494;2023-08-24T13:39:44;11.83;;;4.77;;
78873;SDS011;68250;43.514;1.494;2023-08-24T13:42:10;10.02;;;5.07;;
78873;SDS011;68250;43.514;1.494;2023-08-24T13:44:35;8.83;;;4.83;;
78873;SDS011;68250;43.514;1.494;2023-08-24T13:47:01;10.63;;;5.50;;
78873;SDS011;68250;43.514;1.494;2023-08-24T13:49:26;9.32;;;5.32;;
78873;SDS011;68250;43.514;1.494;2023-08-24T13:51:52;9.70;;;5.30;;
78873;SDS011;68250;43.514;1.494;2023-08-24T13:54:18;9.87;;;5.37;;
78873;SDS011;68250;43.514;1.494;2023-08-24T13:56:44;10.38;;;5.28;;
78873;SDS011;68250;43.514;1.494;2023-08-24T13:59:11;6.60;;;4.60;;
78873;SDS011;68250;43.514;1.494;2023-08-24T14:01:37;10.38;;;4.55;;
78873;SDS011;68250;43.514;1.494;2023-08-24T14:04:03;12.13;;;4.77;;
78873;SDS011;68250;43.514;1.494;2023-08-24T14:06:29;8.77;;;4.63;;
78873;SDS011;68250;43.514;1.494;2023-08-24T14:08:58;7.97;;;4.85;;
78873;SDS011;68250;43.514;1.494;2023-08-24T14:11:24;10.43;;;4.80;;
78873;SDS011;68250;43.514;1.494;2023-08-24T14:13:50;12.07;;;5.13;;
78873;SDS011;68250;43.514;1.494;2023-08-24T14:16:16;10.20;;;4.97;;
78873;SDS011;68250;43.514;1.494;2023-08-24T14:18:45;10.73;;;4.85;;
78873;SDS011;68250;43.514;1.494;2023-08-24T14:21:11;11.45;;;5.40;;
78873;SDS011;68250;43.514;1.494;2023-08-24T14:23:36;7.90;;;5.07;;
78873;SDS011;68250;43.514;1.494;2023-08-24T14:26:02;10.05;;;5.10;;
78873;SDS011;68250;43.514;1.494;2023-08-24T14:28:46;11.03;;;5.50;;
78873;SDS011;68250;43.514;1.494;2023-08-24T14:31:18;9.40;;;4.65;;
78873;SDS011;68250;43.514;1.494;2023-08-24T14:33:44;10.82;;;5.15;;
78873;SDS011;68250;43.514;1.494;2023-08-24T14:36:10;9.93;;;4.57;;
78873;SDS011;68250;43.514;1.494;2023-08-24T14:38:38;9.00;;;4.63;;
78873;SDS011;68250;43.514;1.494;2023-08-24T14:41:05;11.40;;;4.35;;
78873;SDS011;68250;43.514;1.494;2023-08-24T14:43:30;9.90;;;4.90;;
78873;SDS011;68250;43.514;1.494;2023-08-24T14:45:56;10.45;;;4.53;;
78873;SDS011;68250;43.514;1.494;2023-08-24T14:48:21;8.73;;;4.47;;
78873;SDS011;68250;43.514;1.494;2023-08-24T14:50:47;8.27;;;4.60;;
78873;SDS011;68250;43.514;1.494;2023-08-24T14:53:13;9.80;;;4.93;;
78873;SDS011;68250;43.514;1.494;2023-08-24T14:55:39;8.35;;;4.57;;
78873;SDS011;68250;43.514;1.494;2023-08-24T14:58:04;7.87;;;5.10;;